Hauptseite
METAR-TAF:

METAR-TAF

Flughäfen :

Nantes, Frankreich

Flughafen Nantes

Breite: 47-10N, Länge: 001-36W, Höhe: 27 m

Beobachtung

Neuester Wetterbericht von vor 27 Minuten, um 09:30 UTC
Wind 5 kt aus Süd, variierte zwischen Ost/Südost und Süd/Südwest
Temperatur 22°C
Luftfeuchtigkeit 50%
Luftdruck 1023 hPa
Sichtweite 10 km oder mehr
keine Wolken unter 1500 m und keine Kumulonimbus oder Gewitterwolken

METAR: LFRS 190930Z AUTO 18005KT 120V210 CAVOK 22/11 Q1023 NOSIG

Zeit: 11:57 (09:57 UTC)

Prognose

Neuester Wetterbericht von vor 4 Stunden und 57 Minuten, um 05:00 UTC
Gültige Prognose vom 19 um 06 UTC bis 20 um 12 UTC
Wind 4 kt aus Südost
Sichtweite 10 km oder mehr
keine Wolken unter 1500 m und keine Kumulonimbus oder Gewitterwolken
Übergehend zu
vom 19 um 18 UTC bis 19 um 21 UTC
Wind 3 kt aus unterschiedlichen Richtungen

TAF: LFRS 190500Z 1906/2012 14004KT CAVOK BECMG 1918/1921 VRB03KT

Wetterbeobachtungen und Prognosen von mehr als 4000 Flughäfen (METAR und TAF Bericht).

Die verfügbaren Stationen werden durch gelbe und rote Markierungen auf der Karte dargestellt.

Führen Sie die Maus auf sie, um den Namen der Station zu sehen.

Darauf klicken, um die Beobachtung von Wetterbeobachtungen und Prognosen zu sehen.

Um die Karte zu ändern : klicken Sie auf den grünen Tasten mit einem schwarzen Kreuz Zum Vergrößern, auf den grünen Button mit einem Gedankenstrich zu verkleinern, oder auf die grünen Pfeile für benachbarte Karten.


METAR-TAF: